Time;durP1;ratioP1;P1;durP2;ratioP2;P2;SDS_P1;SDS_P2;PMS_P1;PMS_P2;Temp;Humidity;BMP_temperature;BMP_pressure;BME280_temperature;BME280_humidity;BME280_pressure;Samples;Min_cycle;Max_cycle;Signal;HPM_P1;HPM_P2
2022/10/29 00:02:02;;;;;;;103.30;56.83;;;9.10;99.90;;;;;;5056701;28;20708;-66
2022/10/29 00:04:28;;;;;;;98.43;58.13;;;9.10;99.90;;;;;;5057096;28;20029;-66
2022/10/29 00:06:54;;;;;;;102.43;57.88;;;9.20;99.90;;;;;;5057036;28;20606;-66
2022/10/29 00:09:20;;;;;;;121.55;66.75;;;9.30;99.90;;;;;;5057066;28;20164;-66
2022/10/29 00:11:46;;;;;;;121.65;65.28;;;9.30;99.90;;;;;;5057074;28;20164;-66
2022/10/29 00:14:12;;;;;;;116.80;66.30;;;9.40;99.90;;;;;;5057018;28;20033;-66
2022/10/29 00:16:38;;;;;;;145.63;74.60;;;9.50;99.90;;;;;;5056960;28;20033;-66
2022/10/29 00:19:05;;;;;;;104.38;57.72;;;9.60;99.90;;;;;;5039021;28;20033;-66
2022/10/29 00:21:31;;;;;;;101.88;57.60;;;9.60;99.90;;;;;;5056770;28;20021;-66
2022/10/29 00:23:57;;;;;;;94.32;52.75;;;9.40;99.90;;;;;;5056655;28;20032;-66
2022/10/29 00:26:24;;;;;;;95.35;51.65;;;9.20;99.90;;;;;;5056810;28;20462;-66
2022/10/29 00:28:55;;;;;;;88.70;51.35;;;9.20;99.90;;;;;;5056702;28;20464;-66
2022/10/29 00:31:24;;;;;;;;;;;9.10;99.90;;;;;;5057162;28;20056;-66
2022/10/29 00:33:54;;;;;;;83.82;49.03;;;9.00;99.90;;;;;;5056506;28;19909;-66
2022/10/29 00:36:23;;;;;;;87.20;51.17;;;8.90;99.90;;;;;;5056494;28;20102;-66
2022/10/29 00:38:49;;;;;;;91.57;54.17;;;8.90;99.90;;;;;;5056535;28;20383;-66
2022/10/29 00:41:19;;;;;;;93.05;54.45;;;8.90;99.90;;;;;;5056331;28;20158;-66
2022/10/29 00:44:19;;;;;;;88.85;51.08;;;8.90;99.90;;;;;;5056465;28;20051;-66
2022/10/29 00:46:56;;;;;;;97.80;54.50;;;8.90;99.90;;;;;;5056448;28;20028;-66
2022/10/29 00:49:23;;;;;;;101.85;55.13;;;8.90;99.90;;;;;;5056343;28;20387;-66
2022/10/29 00:51:51;;;;;;;105.10;53.25;;;8.90;99.90;;;;;;5056377;28;20154;-66
2022/10/29 00:54:18;;;;;;;104.90;54.30;;;8.90;99.90;;;;;;5056161;28;20108;-66
2022/10/29 00:56:53;;;;;;;94.03;53.30;;;8.90;99.90;;;;;;5056197;28;20066;-66
2022/10/29 00:59:19;;;;;;;95.47;53.00;;;8.80;99.90;;;;;;5056167;28;20391;-66
2022/10/29 01:01:47;;;;;;;89.65;51.20;;;8.80;99.90;;;;;;5055686;28;20037;-66
2022/10/29 01:04:13;;;;;;;91.75;51.03;;;8.60;99.90;;;;;;5056007;28;20429;-66
2022/10/29 01:06:41;;;;;;;93.00;52.75;;;8.60;99.90;;;;;;5038225;28;20108;-66
2022/10/29 01:09:07;;;;;;;95.72;52.30;;;8.60;99.90;;;;;;5055900;28;20017;-67
2022/10/29 01:12:11;;;;;;;90.30;51.15;;;8.60;99.90;;;;;;5055804;28;20036;-66
2022/10/29 01:15:03;;;;;;;82.53;48.85;;;8.50;99.90;;;;;;5005195;28;20395;-66
2022/10/29 01:17:51;;;;;;;82.18;47.47;;;8.60;99.90;;;;;;5035863;28;20034;-66
2022/10/29 01:20:37;;;;;;;80.82;47.83;;;8.50;99.90;;;;;;5035873;28;20029;-66
2022/10/29 01:23:31;;;;;;;84.40;49.03;;;8.50;99.90;;;;;;5035635;28;20056;-66
2022/10/29 01:26:23;;;;;;;83.38;46.78;;;8.50;99.90;;;;;;5017961;28;20030;-66
2022/10/29 01:29:08;;;;;;;84.75;48.65;;;8.40;99.90;;;;;;5028850;28;20037;-67
2022/10/29 01:31:55;;;;;;;81.82;45.75;;;8.50;99.90;;;;;;5035660;28;20056;-67
2022/10/29 01:34:24;;;;;;;77.57;47.17;;;8.30;99.90;;;;;;5017664;28;20041;-67
2022/10/29 01:37:22;;;;;;;74.18;46.03;;;8.20;99.90;;;;;;5035500;28;20056;-66
2022/10/29 01:40:15;;;;;;;84.38;48.33;;;8.30;99.90;;;;;;5035016;28;20072;-66
2022/10/29 01:42:56;;;;;;;82.40;48.20;;;8.40;99.90;;;;;;5035072;28;20044;-67
2022/10/29 01:45:42;;;;;;;;;;;8.40;99.90;;;;;;5035873;28;20047;-66
2022/10/29 01:48:16;;;;;;;74.03;45.03;;;8.40;99.90;;;;;;5034757;28;19917;-66
2022/10/29 01:50:48;;;;;;;70.88;43.03;;;8.40;99.90;;;;;;5035408;28;20041;-66
2022/10/29 01:53:16;;;;;;;72.68;44.03;;;8.30;99.90;;;;;;5035225;28;20037;-66
2022/10/29 01:55:42;;;;;;;67.75;42.67;;;8.10;99.90;;;;;;5035011;28;20033;-66
2022/10/29 01:58:09;;;;;;;71.47;41.58;;;8.10;99.90;;;;;;5035106;28;20037;-66
2022/10/29 02:00:53;;;;;;;68.78;42.10;;;8.10;99.90;;;;;;5041414;28;20045;-66
2022/10/29 02:03:32;;;;;;;72.18;42.47;;;8.10;99.90;;;;;;5055059;28;20041;-66
2022/10/29 02:06:19;;;;;;;71.40;42.25;;;8.00;99.90;;;;;;5054871;28;20475;-66
2022/10/29 02:09:09;;;;;;;65.40;42.08;;;8.00;99.90;;;;;;5054791;28;20056;-66
2022/10/29 02:12:07;;;;;;;73.90;42.00;;;8.00;99.90;;;;;;5054759;28;20025;-66
2022/10/29 02:14:41;;;;;;;69.43;41.45;;;8.00;99.90;;;;;;5034353;28;20060;-66
2022/10/29 02:17:07;;;;;;;75.22;44.50;;;8.00;99.90;;;;;;5034828;28;20029;-66
2022/10/29 02:19:34;;;;;;;66.45;40.85;;;8.00;99.90;;;;;;5034774;28;20095;-66
2022/10/29 02:22:00;;;;;;;75.75;42.75;;;8.10;99.90;;;;;;5034621;28;20036;-66
2022/10/29 02:24:26;;;;;;;75.28;42.75;;;8.10;99.90;;;;;;5034669;28;20026;-66
2022/10/29 02:26:52;;;;;;;63.40;39.95;;;8.10;99.90;;;;;;5034749;28;20052;-66
2022/10/29 02:29:18;;;;;;;64.90;38.85;;;8.00;99.90;;;;;;5034755;28;20021;-66
2022/10/29 02:31:44;;;;;;;61.13;39.08;;;8.00;99.90;;;;;;5034654;28;20041;-66
2022/10/29 02:34:10;;;;;;;64.07;38.70;;;8.00;99.90;;;;;;5033276;28;20041;-66
2022/10/29 02:36:36;;;;;;;58.58;37.47;;;8.00;99.90;;;;;;5034318;28;20025;-66
2022/10/29 02:39:02;;;;;;;49.92;33.83;;;8.10;99.90;;;;;;5050521;28;20068;-66
2022/10/29 02:41:28;;;;;;;55.08;34.58;;;8.00;99.90;;;;;;5054362;28;20028;-66
2022/10/29 02:43:54;;;;;;;53.80;33.47;;;7.90;99.90;;;;;;5054419;28;20382;-66
2022/10/29 02:46:22;;;;;;;50.65;32.28;;;8.00;99.90;;;;;;5054396;28;20447;-66
2022/10/29 02:48:48;;;;;;;57.28;32.72;;;7.90;99.90;;;;;;5054385;28;20104;-66
2022/10/29 02:51:15;;;;;;;53.70;31.98;;;7.90;99.90;;;;;;5054219;28;20478;-66
2022/10/29 02:53:41;;;;;;;49.40;32.08;;;7.90;99.90;;;;;;5054321;28;20115;-66
2022/10/29 02:56:08;;;;;;;50.88;30.92;;;8.00;99.90;;;;;;5054488;28;20460;-66
2022/10/29 02:58:34;;;;;;;41.78;28.48;;;8.00;99.90;;;;;;5054297;28;20029;-66
2022/10/29 03:01:01;;;;;;;44.53;29.58;;;8.10;99.90;;;;;;5053865;28;20379;-66
2022/10/29 03:03:27;;;;;;;45.80;30.65;;;8.10;99.90;;;;;;5054228;28;20550;-66
2022/10/29 03:05:53;;;;;;;47.15;31.13;;;8.10;99.90;;;;;;5054146;28;20160;-66
2022/10/29 03:08:19;;;;;;;50.85;33.05;;;8.00;99.90;;;;;;5054393;28;20363;-66
2022/10/29 03:10:45;;;;;;;50.33;32.45;;;8.00;99.90;;;;;;5054245;28;20031;-66
2022/10/29 03:13:11;;;;;;;40.53;27.63;;;8.00;99.90;;;;;;5052891;28;20100;-66
2022/10/29 03:15:37;;;;;;;46.95;30.30;;;8.30;99.90;;;;;;5054147;28;20032;-66
2022/10/29 03:18:04;;;;;;;45.40;31.02;;;8.40;99.90;;;;;;5054160;28;20429;-66
2022/10/29 03:20:30;;;;;;;44.63;30.73;;;8.40;99.90;;;;;;5054004;28;20029;-66
2022/10/29 03:22:56;;;;;;;46.75;30.63;;;8.40;99.90;;;;;;5053991;28;20029;-66
2022/10/29 03:25:22;;;;;;;54.63;31.48;;;8.40;99.90;;;;;;5054035;28;20025;-66
2022/10/29 03:27:47;;;;;;;72.28;33.00;;;8.40;99.90;;;;;;5057781;28;20113;-66
2022/10/29 03:30:15;;;;;;;55.80;33.78;;;8.40;99.90;;;;;;5057841;28;20029;-66
2022/10/29 03:32:47;;;;;;;54.17;32.08;;;8.40;99.90;;;;;;5057927;28;20482;-66
2022/10/29 03:35:14;;;;;;;62.42;34.15;;;8.50;99.90;;;;;;5057722;28;20048;-66
2022/10/29 03:37:40;;;;;;;69.70;35.60;;;8.50;99.90;;;;;;5057578;28;20024;-66
2022/10/29 03:40:07;;;;;;;70.03;34.17;;;8.50;99.90;;;;;;5057696;28;20051;-66
2022/10/29 03:42:33;;;;;;;77.22;39.20;;;8.70;99.90;;;;;;5057630;28;20033;-66
2022/10/29 03:45:00;;;;;;;74.45;35.03;;;8.70;99.90;;;;;;5057652;28;20025;-66
2022/10/29 03:47:27;;;;;;;77.95;38.00;;;8.70;99.90;;;;;;5039617;28;20032;-66
2022/10/29 03:49:54;;;;;;;90.13;39.13;;;8.80;99.90;;;;;;5057512;28;20032;-66
2022/10/29 03:52:20;;;;;;;81.03;39.63;;;8.90;99.90;;;;;;5057543;28;20495;-66
2022/10/29 03:54:46;;;;;;;89.75;39.45;;;8.90;99.90;;;;;;5057940;28;20031;-67
2022/10/29 03:57:12;;;;;;;87.07;39.95;;;8.90;99.90;;;;;;5057358;28;20119;-66
2022/10/29 03:59:38;;;;;;;82.90;38.65;;;8.90;99.90;;;;;;5057439;28;20029;-66
2022/10/29 04:02:05;;;;;;;83.80;39.17;;;9.00;99.90;;;;;;5056930;28;20049;-66
2022/10/29 04:04:30;;;;;;;93.50;40.03;;;9.00;99.90;;;;;;5057319;28;20568;-66
2022/10/29 04:06:56;;;;;;;99.75;42.05;;;9.00;99.90;;;;;;5057103;28;20155;-67
2022/10/29 04:09:22;;;;;;;90.22;39.70;;;8.90;99.90;;;;;;5057236;28;20029;-66
2022/10/29 04:11:48;;;;;;;147.43;45.28;;;8.80;99.90;;;;;;5057113;28;20048;-66
2022/10/29 04:14:14;;;;;;;117.93;48.17;;;8.80;99.90;;;;;;5056980;28;20033;-66
2022/10/29 04:16:40;;;;;;;102.90;46.47;;;8.80;99.90;;;;;;5056980;28;20497;-67
2022/10/29 04:19:06;;;;;;;101.60;46.20;;;8.80;99.90;;;;;;5056981;28;20104;-66
2022/10/29 04:21:32;;;;;;;108.10;48.22;;;8.90;99.90;;;;;;5056840;28;20463;-67
2022/10/29 04:23:58;;;;;;;108.55;48.03;;;8.90;99.90;;;;;;5056879;28;20035;-67
2022/10/29 04:26:23;;;;;;;127.63;53.17;;;9.10;99.90;;;;;;5057065;28;20060;-67
2022/10/29 04:28:50;;;;;;;136.73;53.22;;;9.00;99.90;;;;;;5056786;28;20029;-67
2022/10/29 04:31:17;;;;;;;95.85;48.45;;;9.00;99.90;;;;;;5056630;28;20083;-67
2022/10/29 04:33:43;;;;;;;108.82;50.58;;;9.00;99.90;;;;;;5056591;28;20025;-67
2022/10/29 04:36:10;;;;;;;112.68;50.08;;;9.20;99.90;;;;;;5056546;28;20025;-67
2022/10/29 04:38:36;;;;;;;113.03;50.30;;;9.40;99.90;;;;;;5056116;28;20033;-67
2022/10/29 04:41:02;;;;;;;123.63;52.65;;;9.40;99.90;;;;;;5056290;28;20032;-67
2022/10/29 04:43:28;;;;;;;117.82;51.92;;;9.30;99.90;;;;;;5056538;28;20051;-67
2022/10/29 04:45:56;;;;;;;120.82;52.63;;;9.30;99.90;;;;;;5056470;28;20136;-67
2022/10/29 04:48:24;;;;;;;118.65;52.78;;;9.30;99.90;;;;;;5056441;28;20490;-67
2022/10/29 04:50:50;;;;;;;123.68;54.67;;;9.20;99.90;;;;;;5056399;28;20025;-67
2022/10/29 04:53:16;;;;;;;173.07;57.22;;;9.20;99.90;;;;;;5056252;28;20025;-67
2022/10/29 04:55:43;;;;;;;181.68;58.67;;;9.20;99.90;;;;;;5056253;28;20029;-67
2022/10/29 04:58:17;;;;;;;226.07;59.55;;;9.20;99.90;;;;;;5056225;28;20433;-67
2022/10/29 05:00:44;;;;;;;149.38;54.72;;;9.10;99.90;;;;;;5055921;28;20522;-67
2022/10/29 05:03:10;;;;;;;143.40;53.13;;;9.10;99.90;;;;;;5056026;28;20390;-67
2022/10/29 05:05:38;;;;;;;101.15;50.55;;;9.10;99.90;;;;;;5056083;28;20029;-67
2022/10/29 05:08:05;;;;;;;102.70;52.80;;;9.10;99.90;;;;;;5056057;28;20025;-66
2022/10/29 05:10:36;;;;;;;111.20;49.88;;;9.30;99.90;;;;;;5055984;28;20021;-67
2022/10/29 05:13:06;;;;;;;88.00;46.47;;;9.30;99.90;;;;;;5055829;28;20025;-67
2022/10/29 05:15:32;;;;;;;92.05;49.83;;;9.40;99.90;;;;;;5056000;28;20379;-67
2022/10/29 05:17:58;;;;;;;117.55;50.33;;;9.50;99.90;;;;;;5055890;28;20436;-67
2022/10/29 05:20:25;;;;;;;107.28;51.75;;;9.30;99.90;;;;;;5055695;28;20033;-67
2022/10/29 05:23:06;;;;;;;110.80;54.92;;;9.30;99.90;;;;;;5055756;28;20081;-67
2022/10/29 05:25:35;;;;;;;111.72;52.67;;;9.40;99.90;;;;;;5055690;28;20086;-67
2022/10/29 05:28:12;;;;;;;121.78;55.85;;;9.40;99.90;;;;;;5055520;28;20017;-67
2022/10/29 05:30:39;;;;;;;128.70;58.40;;;9.30;99.90;;;;;;5055666;28;20029;-67
2022/10/29 05:33:06;;;;;;;139.45;62.72;;;9.30;99.90;;;;;;5037683;28;20033;-67
2022/10/29 05:35:32;;;;;;;149.15;63.05;;;9.50;99.90;;;;;;5055548;28;20089;-67
2022/10/29 05:37:59;;;;;;;141.18;62.60;;;9.40;99.90;;;;;;5055137;28;20099;-67
2022/10/29 05:40:25;;;;;;;152.05;62.00;;;9.40;99.90;;;;;;5055490;28;20120;-67
2022/10/29 05:42:51;;;;;;;147.00;59.17;;;9.50;99.90;;;;;;5055373;28;20159;-67
2022/10/29 05:45:17;;;;;;;118.03;55.22;;;9.30;99.90;;;;;;5055442;28;20087;-67
2022/10/29 05:47:43;;;;;;;205.13;56.35;;;9.40;99.90;;;;;;5055010;28;20028;-67
2022/10/29 05:50:10;;;;;;;250.52;55.33;;;9.40;99.90;;;;;;5054515;28;20027;-67
2022/10/29 05:52:36;;;;;;;113.75;53.70;;;9.40;99.90;;;;;;5055088;28;20061;-67
2022/10/29 05:55:02;;;;;;;137.95;53.95;;;9.30;99.90;;;;;;5055216;28;20111;-67
2022/10/29 05:57:30;;;;;;;110.82;52.42;;;9.50;99.90;;;;;;5055074;28;20087;-67
2022/10/29 05:59:55;;;;;;;112.72;49.58;;;9.40;99.90;;;;;;5055029;28;20040;-67
2022/10/29 06:02:21;;;;;;;101.05;46.53;;;9.40;99.90;;;;;;5054838;28;20041;-67
2022/10/29 06:04:47;;;;;;;143.15;51.03;;;9.50;99.90;;;;;;5054810;28;20026;-67
2022/10/29 06:07:13;;;;;;;101.28;49.67;;;9.50;99.90;;;;;;5054837;28;20025;-67
2022/10/29 06:09:39;;;;;;;97.85;47.83;;;9.40;99.90;;;;;;5054889;28;20115;-67
2022/10/29 06:12:05;;;;;;;91.15;46.78;;;9.50;99.90;;;;;;5054838;28;20033;-67
2022/10/29 06:14:31;;;;;;;100.03;47.72;;;9.50;99.90;;;;;;5054725;28;20068;-66
2022/10/29 06:16:57;;;;;;;96.35;49.90;;;9.60;99.90;;;;;;5054713;28;20057;-67
2022/10/29 06:19:23;;;;;;;105.53;51.92;;;9.70;99.90;;;;;;5054706;28;20039;-67
2022/10/29 06:21:49;;;;;;;100.95;53.08;;;9.80;99.90;;;;;;5054845;28;20021;-67
2022/10/29 06:24:14;;;;;;;105.25;53.35;;;10.00;99.90;;;;;;5054733;28;20517;-67
2022/10/29 06:26:40;;;;;;;102.57;52.72;;;10.00;99.90;;;;;;5054631;28;20020;-67
2022/10/29 06:29:06;;;;;;;146.20;55.53;;;9.90;99.90;;;;;;5054516;28;20029;-67
2022/10/29 06:31:32;;;;;;;143.30;59.85;;;9.80;99.90;;;;;;5054585;28;20043;-67
2022/10/29 06:33:58;;;;;;;262.50;67.22;;;9.80;99.90;;;;;;5054264;28;20395;-67
2022/10/29 06:36:24;;;;;;;159.52;61.97;;;9.70;99.90;;;;;;5054427;28;20033;-67
2022/10/29 06:38:50;;;;;;;158.80;65.28;;;9.70;99.90;;;;;;5054386;28;20482;-67
2022/10/29 06:41:16;;;;;;;200.23;71.10;;;9.60;99.90;;;;;;5036383;28;20037;-67
2022/10/29 06:43:42;;;;;;;148.38;66.10;;;9.70;99.90;;;;;;5054309;28;20107;-67
2022/10/29 06:46:07;;;;;;;158.75;67.65;;;9.80;99.90;;;;;;5036564;28;20056;-67
2022/10/29 06:48:33;;;;;;;158.05;64.38;;;9.90;99.90;;;;;;5036511;28;20032;-67
2022/10/29 06:51:00;;;;;;;141.63;64.32;;;10.00;99.90;;;;;;5054248;28;20025;-67
2022/10/29 06:53:26;;;;;;;157.88;63.38;;;10.10;99.90;;;;;;5054268;28;20033;-67
2022/10/29 06:55:52;;;;;;;254.82;69.05;;;10.20;99.90;;;;;;5054323;28;20031;-67
2022/10/29 06:58:19;;;;;;;173.25;68.13;;;10.10;99.90;;;;;;5054191;28;20087;-67
2022/10/29 07:00:46;;;;;;;142.75;66.90;;;10.00;99.90;;;;;;5056357;28;20077;-67
2022/10/29 07:03:17;;;;;;;163.63;66.38;;;10.30;99.90;;;;;;5058326;28;20029;-67
2022/10/29 07:05:43;;;;;;;;;;;10.30;99.90;;;;;;5058899;28;20025;-67
2022/10/29 07:08:09;;;;;;;170.23;74.03;;;10.20;99.90;;;;;;5058237;28;19912;-67
2022/10/29 07:10:35;;;;;;;192.27;76.25;;;10.00;99.90;;;;;;5058202;28;20037;-67
2022/10/29 07:13:02;;;;;;;177.07;77.13;;;9.90;99.90;;;;;;5058269;28;20528;-67
2022/10/29 07:15:29;;;;;;;183.85;79.57;;;10.00;99.90;;;;;;5058110;28;20067;-67
2022/10/29 07:18:02;;;;;;;162.52;79.53;;;10.00;99.90;;;;;;5058001;28;20086;-67
2022/10/29 07:20:30;;;;;;;172.23;77.40;;;10.40;99.90;;;;;;5058124;28;20040;-67
2022/10/29 07:22:56;;;;;;;148.93;71.82;;;10.40;99.90;;;;;;5057859;28;20033;-67
2022/10/29 07:25:23;;;;;;;162.75;71.25;;;10.50;99.90;;;;;;5057947;28;20040;-67
2022/10/29 07:27:49;;;;;;;151.38;66.32;;;10.50;99.90;;;;;;5058008;28;20135;-67
2022/10/29 07:30:16;;;;;;;139.75;63.40;;;10.50;99.90;;;;;;5057963;28;20115;-67
2022/10/29 07:32:42;;;;;;;141.50;64.53;;;10.70;99.90;;;;;;5057720;28;20029;-67
2022/10/29 07:35:08;;;;;;;134.95;62.47;;;10.80;99.90;;;;;;5057711;28;20033;-67
2022/10/29 07:37:34;;;;;;;128.23;59.17;;;10.70;99.90;;;;;;5057640;28;20037;-67
2022/10/29 07:40:00;;;;;;;160.90;65.43;;;10.80;99.90;;;;;;5057662;28;20104;-67
2022/10/29 07:42:26;;;;;;;126.40;60.65;;;10.90;99.90;;;;;;5057526;28;20051;-67
2022/10/29 07:44:52;;;;;;;116.93;55.35;;;11.00;99.90;;;;;;5057571;28;20021;-67
2022/10/29 07:47:18;;;;;;;121.07;55.00;;;11.30;99.90;;;;;;5057534;28;20039;-67
2022/10/29 07:49:44;;;;;;;112.22;55.25;;;11.40;99.90;;;;;;5057496;28;20041;-67
2022/10/29 07:52:10;;;;;;;119.50;56.85;;;11.30;99.90;;;;;;5057545;28;20054;-67
2022/10/29 07:54:36;;;;;;;113.55;54.28;;;11.30;99.90;;;;;;5057337;28;20029;-67
2022/10/29 07:57:01;;;;;;;104.68;51.85;;;11.40;99.90;;;;;;5039584;28;20047;-67
2022/10/29 07:59:27;;;;;;;107.65;53.78;;;11.30;99.90;;;;;;5057140;28;20393;-67
2022/10/29 08:01:53;;;;;;;107.20;55.17;;;11.40;99.90;;;;;;5056927;28;20502;-67
2022/10/29 08:04:19;;;;;;;106.82;55.90;;;11.50;99.90;;;;;;5057291;28;20021;-67
2022/10/29 08:06:45;;;;;;;103.93;55.92;;;11.60;99.90;;;;;;5057070;28;20025;-67
2022/10/29 08:09:11;;;;;;;105.70;56.05;;;11.70;99.90;;;;;;5057057;28;20422;-67
2022/10/29 08:11:37;;;;;;;106.95;57.47;;;11.80;99.90;;;;;;5056175;28;20037;-67
2022/10/29 08:14:03;;;;;;;112.85;57.30;;;11.90;99.90;;;;;;5057200;28;20463;-67
2022/10/29 08:16:29;;;;;;;104.20;55.63;;;12.10;99.90;;;;;;5056982;28;20059;-68
2022/10/29 08:18:55;;;;;;;103.60;52.15;;;12.30;99.90;;;;;;5056857;28;20024;-68
2022/10/29 08:21:22;;;;;;;93.68;51.45;;;12.50;99.90;;;;;;5056797;28;20106;-68
2022/10/29 08:23:48;;;;;;;103.32;55.85;;;12.40;99.90;;;;;;5056876;28;20021;-68
2022/10/29 08:26:13;;;;;;;100.57;54.25;;;12.60;99.90;;;;;;5056804;28;20071;-68
2022/10/29 08:28:41;;;;;;;109.25;59.25;;;12.60;99.90;;;;;;5056693;28;20029;-68
2022/10/29 08:31:08;;;;;;;123.35;63.22;;;12.70;99.90;;;;;;5056683;28;20036;-68
2022/10/29 08:33:34;;;;;;;128.00;66.82;;;12.80;99.90;;;;;;5056773;28;20024;-68
2022/10/29 08:36:00;;;;;;;119.30;62.72;;;12.70;99.90;;;;;;5056587;28;20474;-68
2022/10/29 08:38:26;;;;;;;127.43;64.97;;;12.90;99.90;;;;;;5056428;28;20025;-68
2022/10/29 08:41:33;;;;;;;129.73;65.78;;;12.80;99.90;;;;;;5056586;28;20025;-68
2022/10/29 08:44:26;;;;;;;124.13;63.90;;;12.80;99.90;;;;;;5056475;28;20025;-68
2022/10/29 08:47:00;;;;;;;134.13;67.60;;;12.70;99.90;;;;;;5055430;28;20380;-68
2022/10/29 08:49:53;;;;;;;148.18;66.43;;;12.90;99.90;;;;;;5056210;28;20048;-67
2022/10/29 08:52:25;;;;;;;143.18;68.28;;;13.10;99.90;;;;;;5027595;28;20072;-68
2022/10/29 08:55:22;;;;;;;130.93;67.68;;;13.20;99.90;;;;;;5056150;28;20391;-68
2022/10/29 08:58:04;;;;;;;132.25;66.88;;;13.40;99.90;;;;;;5056069;28;20063;-68
2022/10/29 09:00:33;;;;;;;117.57;62.28;;;13.80;99.90;;;;;;5055902;28;20036;-67
2022/10/29 09:03:00;;;;;;;120.57;64.85;;;14.30;99.90;;;;;;5038108;28;20041;-68
2022/10/29 09:05:34;;;;;;;120.43;62.38;;;14.50;99.90;;;;;;5056048;28;20161;-68
2022/10/29 09:08:23;;;;;;;122.93;61.70;;;15.00;99.90;;;;;;5056296;28;20083;-68
2022/10/29 09:10:55;;;;;;;120.07;63.25;;;15.30;99.90;;;;;;5045474;28;20392;-68
2022/10/29 09:13:39;;;;;;;118.57;60.35;;;15.70;99.90;;;;;;5055929;28;20029;-68
2022/10/29 09:16:11;;;;;;;119.82;58.78;;;16.60;99.90;;;;;;5055960;28;20029;-68
2022/10/29 09:18:52;;;;;;;131.32;61.28;;;17.30;99.90;;;;;;5055778;28;20032;-68
2022/10/29 09:21:31;;;;;;;111.07;57.75;;;18.70;99.90;;;;;;5055691;28;20489;-68
2022/10/29 09:23:59;;;;;;;113.30;55.08;;;19.00;99.90;;;;;;5055605;28;20032;-68
2022/10/29 09:26:47;;;;;;;106.50;52.70;;;19.40;98.00;;;;;;5055741;28;20021;-68
2022/10/29 09:29:28;;;;;;;104.80;51.10;;;19.90;95.30;;;;;;5055610;28;20082;-68
2022/10/29 09:32:12;;;;;;;97.18;50.95;;;20.50;94.90;;;;;;5055506;28;20420;-68
2022/10/29 09:34:51;;;;;;;90.00;49.58;;;21.00;92.70;;;;;;5055552;28;20041;-69
2022/10/29 09:37:21;;;;;;;98.85;49.13;;;20.80;91.20;;;;;;5055505;28;20124;-69
2022/10/29 09:39:47;;;;;;;94.75;47.90;;;21.10;87.10;;;;;;5055499;28;20039;-69
2022/10/29 09:42:19;;;;;;;83.82;46.25;;;21.20;85.90;;;;;;5055251;28;20128;-69
2022/10/29 09:44:57;;;;;;;91.93;48.63;;;21.30;84.90;;;;;;5055315;28;20475;-69
2022/10/29 09:47:35;;;;;;;81.75;44.03;;;21.60;86.60;;;;;;5055598;28;20060;-69
2022/10/29 09:50:31;;;;;;;75.03;43.92;;;21.80;81.20;;;;;;5055116;28;20055;-69
2022/10/29 09:52:58;;;;;;;76.30;39.92;;;21.30;81.90;;;;;;5055171;28;20103;-70
2022/10/29 09:55:53;;;;;;;75.63;41.72;;;21.80;80.40;;;;;;5055079;28;20047;-69
2022/10/29 09:58:22;;;;;;;69.53;39.45;;;22.30;79.40;;;;;;5039375;28;20041;-69
2022/10/29 10:00:49;;;;;;;67.47;38.22;;;22.60;76.30;;;;;;5054850;28;20116;-69
2022/10/29 10:03:48;;;;;;;62.40;36.97;;;22.80;73.90;;;;;;5055005;28;20120;-70
2022/10/29 10:06:15;;;;;;;60.35;34.42;;;22.90;73.10;;;;;;5055051;28;20092;-70
2022/10/29 10:09:04;;;;;;;61.20;35.20;;;23.40;72.20;;;;;;5054834;28;20028;-70
2022/10/29 10:11:42;;;;;;;54.17;30.83;;;23.70;67.50;;;;;;5054869;28;20387;-70
2022/10/29 10:14:21;;;;;;;50.08;29.30;;;24.20;66.30;;;;;;5054692;28;20395;-70
2022/10/29 10:17:00;;;;;;;41.33;27.25;;;24.50;67.10;;;;;;5037093;28;20021;-70
2022/10/29 10:19:28;;;;;;;41.88;26.10;;;24.70;61.40;;;;;;5054729;28;20402;-70
2022/10/29 10:22:02;;;;;;;38.53;26.17;;;24.80;59.30;;;;;;5054528;28;20033;-69
2022/10/29 10:24:28;;;;;;;38.25;22.73;;;25.20;61.30;;;;;;5054512;28;20029;-70
2022/10/29 10:26:54;;;;;;;32.17;22.50;;;25.10;58.50;;;;;;5054595;28;20025;-70
2022/10/29 10:29:22;;;;;;;30.50;21.08;;;25.30;58.50;;;;;;5054749;28;20402;-70
2022/10/29 10:32:08;;;;;;;32.42;21.48;;;25.60;56.20;;;;;;5054437;28;20033;-70
2022/10/29 10:34:36;;;;;;;42.65;23.55;;;25.60;56.90;;;;;;5054028;28;20040;-70
2022/10/29 10:37:17;;;;;;;34.60;20.88;;;25.50;57.80;;;;;;5054394;28;20028;-70
2022/10/29 10:40:05;;;;;;;33.83;21.52;;;25.80;56.30;;;;;;5034508;28;20029;-70
2022/10/29 10:42:36;;;;;;;30.17;20.23;;;25.80;55.20;;;;;;5033881;28;20044;-70
2022/10/29 10:45:12;;;;;;;36.60;20.58;;;26.20;55.10;;;;;;5034829;28;20030;-71
2022/10/29 10:47:42;;;;;;;42.22;22.02;;;25.80;55.40;;;;;;5034401;28;20104;-70
2022/10/29 10:50:32;;;;;;;31.95;21.42;;;26.40;54.10;;;;;;5034462;28;20094;-71
2022/10/29 10:53:03;;;;;;;27.60;19.97;;;26.30;53.60;;;;;;5000337;28;20034;-71
2022/10/29 10:55:28;;;;;;;;;;;26.00;54.60;;;;;;5034877;28;20391;-71
2022/10/29 10:58:03;;;;;;;36.40;22.05;;;26.10;53.90;;;;;;5034195;28;19908;-71
2022/10/29 11:01:02;;;;;;;32.83;20.15;;;26.40;54.60;;;;;;5039755;28;20077;-70
2022/10/29 11:03:49;;;;;;;30.70;18.73;;;27.00;53.20;;;;;;5036808;28;20071;-71
2022/10/29 11:06:29;;;;;;;32.42;18.70;;;27.20;52.60;;;;;;5054143;28;20025;-71
2022/10/29 11:09:21;;;;;;;36.30;20.65;;;27.20;51.60;;;;;;5054119;28;20060;-71
2022/10/29 11:11:49;;;;;;;33.72;19.98;;;27.30;51.50;;;;;;5054124;28;20029;-71
2022/10/29 11:14:41;;;;;;;30.35;20.50;;;26.90;51.30;;;;;;5054148;28;20029;-71
2022/10/29 11:17:27;;;;;;;36.85;20.80;;;27.30;52.20;;;;;;5054048;28;20025;-70
2022/10/29 11:19:58;;;;;;;27.70;18.65;;;27.20;51.90;;;;;;5054202;28;20409;-71
2022/10/29 11:22:30;;;;;;;31.13;19.13;;;27.40;51.00;;;;;;5054025;28;20479;-71
2022/10/29 11:24:59;;;;;;;26.00;17.20;;;27.40;50.50;;;;;;5053942;28;20434;-71
2022/10/29 11:27:46;;;;;;;27.85;19.08;;;27.30;50.70;;;;;;5053885;28;20029;-72
2022/10/29 11:30:17;;;;;;;36.58;19.20;;;27.30;50.80;;;;;;5053832;28;20033;-72
2022/10/29 11:32:48;;;;;;;33.15;20.10;;;27.60;51.20;;;;;;5053815;28;20029;-71
2022/10/29 11:35:23;;;;;;;35.63;18.98;;;28.20;49.60;;;;;;5053930;28;20033;-71
2022/10/29 11:37:57;;;;;;;26.55;17.58;;;28.20;49.30;;;;;;5053719;28;20037;-72
2022/10/29 11:40:40;;;;;;;32.72;18.52;;;27.10;50.60;;;;;;5053694;28;20086;-71
2022/10/29 11:43:14;;;;;;;29.50;16.75;;;27.80;51.20;;;;;;5053764;28;20378;-71
2022/10/29 11:46:07;;;;;;;25.30;15.93;;;28.50;48.30;;;;;;5053934;28;20033;-71
2022/10/29 11:48:55;;;;;;;31.30;17.25;;;28.60;47.30;;;;;;5057306;28;20064;-72
2022/10/29 11:51:39;;;;;;;20.40;14.50;;;28.70;46.60;;;;;;5057614;28;20025;-71
2022/10/29 11:54:15;;;;;;;22.42;14.13;;;28.70;45.70;;;;;;5057435;28;20021;-71
2022/10/29 11:57:03;;;;;;;24.80;15.45;;;29.00;46.00;;;;;;5057380;28;20029;-71
2022/10/29 11:59:35;;;;;;;33.65;16.17;;;29.20;45.30;;;;;;5057317;28;20542;-72
2022/10/29 12:02:48;;;;;;;21.42;13.77;;;29.30;45.40;;;;;;5057212;28;20040;-71
2022/10/29 12:05:37;;;;;;;26.35;15.20;;;29.40;45.20;;;;;;5057243;28;20037;-72
2022/10/29 12:08:11;;;;;;;21.58;14.40;;;29.20;44.10;;;;;;5057323;28;20043;-72
2022/10/29 12:10:54;;;;;;;23.15;13.52;;;28.70;45.80;;;;;;5057207;28;20054;-71
2022/10/29 12:13:29;;;;;;;24.95;14.73;;;28.80;46.50;;;;;;5057140;28;20467;-71
2022/10/29 12:16:00;;;;;;;25.38;14.10;;;29.10;45.10;;;;;;5057022;28;20029;-71
2022/10/29 12:18:40;;;;;;;32.25;15.43;;;29.10;44.90;;;;;;5057029;28;20036;-72
2022/10/29 12:21:16;;;;;;;34.00;16.25;;;29.10;44.40;;;;;;5057071;28;20044;-72
2022/10/29 12:24:13;;;;;;;31.00;15.82;;;28.90;44.80;;;;;;5056820;28;20459;-72
2022/10/29 12:26:57;;;;;;;37.97;19.38;;;29.00;44.50;;;;;;4985310;28;20051;-71
2022/10/29 12:29:38;;;;;;;46.47;20.90;;;29.30;44.20;;;;;;5038924;28;20146;-71
2022/10/29 12:32:11;;;;;;;49.20;24.35;;;29.50;44.50;;;;;;5056850;28;20120;-72
2022/10/29 12:35:03;;;;;;;42.25;23.10;;;29.70;43.50;;;;;;5056590;28;20052;-71
2022/10/29 12:37:38;;;;;;;49.83;27.02;;;29.20;44.00;;;;;;5056806;28;20051;-71
2022/10/29 12:40:32;;;;;;;63.22;28.45;;;29.40;45.10;;;;;;5056686;28;20040;-72
2022/10/29 12:43:06;;;;;;;66.70;33.08;;;29.30;44.30;;;;;;5056523;28;20471;-71
2022/10/29 12:45:38;;;;;;;65.70;32.03;;;28.50;46.60;;;;;;5056449;28;20029;-72
2022/10/29 12:48:12;;;;;;;56.35;30.77;;;28.70;46.20;;;;;;5056467;28;20295;-71
2022/10/29 12:50:56;;;;;;;62.38;33.95;;;28.90;46.20;;;;;;5038611;28;20083;-71
2022/10/29 12:53:41;;;;;;;66.00;32.97;;;29.00;45.00;;;;;;5056353;28;20109;-71